sensor_id;sensor_type;location;lat;lon;timestamp;P1;durP1;ratioP1;P2;durP2;ratioP2
25263;SDS011;13211;51.796;5.808;2022-09-21T00:03:36;8.00;;;2.95;;
25263;SDS011;13211;51.796;5.808;2022-09-21T00:06:09;11.70;;;2.85;;
25263;SDS011;13211;51.796;5.808;2022-09-21T00:08:38;7.88;;;3.10;;
25263;SDS011;13211;51.796;5.808;2022-09-21T00:11:06;8.30;;;3.25;;
25263;SDS011;13211;51.796;5.808;2022-09-21T00:13:38;11.38;;;2.78;;
25263;SDS011;13211;51.796;5.808;2022-09-21T00:16:08;11.40;;;3.50;;
25263;SDS011;13211;51.796;5.808;2022-09-21T00:18:35;7.30;;;2.95;;
25263;SDS011;13211;51.796;5.808;2022-09-21T00:21:07;5.72;;;2.60;;
25263;SDS011;13211;51.796;5.808;2022-09-21T00:23:36;8.80;;;3.30;;
25263;SDS011;13211;51.796;5.808;2022-09-21T00:28:34;7.35;;;3.35;;
25263;SDS011;13211;51.796;5.808;2022-09-21T00:31:05;6.60;;;3.35;;
25263;SDS011;13211;51.796;5.808;2022-09-21T00:33:39;8.38;;;3.30;;
25263;SDS011;13211;51.796;5.808;2022-09-21T00:36:08;9.48;;;3.50;;
25263;SDS011;13211;51.796;5.808;2022-09-21T00:38:42;10.93;;;2.80;;
25263;SDS011;13211;51.796;5.808;2022-09-21T00:41:15;9.82;;;3.20;;
25263;SDS011;13211;51.796;5.808;2022-09-21T00:44:18;10.88;;;3.65;;
25263;SDS011;13211;51.796;5.808;2022-09-21T00:47:00;6.72;;;3.10;;
25263;SDS011;13211;51.796;5.808;2022-09-21T00:49:55;6.30;;;3.33;;
25263;SDS011;13211;51.796;5.808;2022-09-21T00:52:25;8.57;;;3.22;;
25263;SDS011;13211;51.796;5.808;2022-09-21T00:55:06;10.32;;;3.50;;
25263;SDS011;13211;51.796;5.808;2022-09-21T00:57:45;8.05;;;3.15;;
25263;SDS011;13211;51.796;5.808;2022-09-21T01:00:17;9.70;;;3.28;;
25263;SDS011;13211;51.796;5.808;2022-09-21T01:02:45;7.03;;;3.30;;
25263;SDS011;13211;51.796;5.808;2022-09-21T01:05:14;10.00;;;3.40;;
25263;SDS011;13211;51.796;5.808;2022-09-21T01:07:44;11.88;;;3.38;;
25263;SDS011;13211;51.796;5.808;2022-09-21T01:10:14;8.50;;;3.25;;
25263;SDS011;13211;51.796;5.808;2022-09-21T01:15:54;11.07;;;3.50;;
25263;SDS011;13211;51.796;5.808;2022-09-21T01:18:40;8.02;;;3.60;;
25263;SDS011;13211;51.796;5.808;2022-09-21T01:21:31;8.98;;;4.00;;
25263;SDS011;13211;51.796;5.808;2022-09-21T01:30:15;10.57;;;4.25;;
25263;SDS011;13211;51.796;5.808;2022-09-21T01:32:51;10.93;;;3.92;;
25263;SDS011;13211;51.796;5.808;2022-09-21T01:35:24;11.93;;;3.97;;
25263;SDS011;13211;51.796;5.808;2022-09-21T01:38:03;14.27;;;4.20;;
25263;SDS011;13211;51.796;5.808;2022-09-21T01:40:38;9.80;;;4.35;;
25263;SDS011;13211;51.796;5.808;2022-09-21T01:43:10;6.30;;;4.07;;
25263;SDS011;13211;51.796;5.808;2022-09-21T01:45:45;10.77;;;4.50;;
25263;SDS011;13211;51.796;5.808;2022-09-21T01:48:16;8.05;;;4.07;;
25263;SDS011;13211;51.796;5.808;2022-09-21T01:50:50;10.10;;;3.78;;
25263;SDS011;13211;51.796;5.808;2022-09-21T01:56:12;7.78;;;3.63;;
25263;SDS011;13211;51.796;5.808;2022-09-21T01:59:13;10.38;;;3.95;;
25263;SDS011;13211;51.796;5.808;2022-09-21T02:01:50;8.98;;;3.47;;
25263;SDS011;13211;51.796;5.808;2022-09-21T02:04:23;11.18;;;3.83;;
25263;SDS011;13211;51.796;5.808;2022-09-21T02:06:51;7.18;;;3.35;;
25263;SDS011;13211;51.796;5.808;2022-09-21T02:09:19;9.32;;;4.47;;
25263;SDS011;13211;51.796;5.808;2022-09-21T02:11:47;9.57;;;3.60;;
25263;SDS011;13211;51.796;5.808;2022-09-21T02:14:19;11.23;;;4.00;;
25263;SDS011;13211;51.796;5.808;2022-09-21T02:16:59;12.80;;;3.38;;
25263;SDS011;13211;51.796;5.808;2022-09-21T02:22:37;7.30;;;3.75;;
25263;SDS011;13211;51.796;5.808;2022-09-21T02:25:15;9.20;;;3.90;;
25263;SDS011;13211;51.796;5.808;2022-09-21T02:28:01;9.55;;;4.22;;
25263;SDS011;13211;51.796;5.808;2022-09-21T02:30:34;8.95;;;4.00;;
25263;SDS011;13211;51.796;5.808;2022-09-21T02:33:09;10.13;;;4.82;;
25263;SDS011;13211;51.796;5.808;2022-09-21T02:35:49;11.43;;;4.50;;
25263;SDS011;13211;51.796;5.808;2022-09-21T02:38:31;11.93;;;3.92;;
25263;SDS011;13211;51.796;5.808;2022-09-21T02:41:14;7.50;;;3.53;;
25263;SDS011;13211;51.796;5.808;2022-09-21T02:47:12;7.40;;;3.55;;
25263;SDS011;13211;51.796;5.808;2022-09-21T02:52:20;12.73;;;3.38;;
25263;SDS011;13211;51.796;5.808;2022-09-21T02:54:52;8.55;;;4.00;;
25263;SDS011;13211;51.796;5.808;2022-09-21T02:57:20;9.48;;;3.47;;
25263;SDS011;13211;51.796;5.808;2022-09-21T02:59:49;11.38;;;4.10;;
25263;SDS011;13211;51.796;5.808;2022-09-21T03:02:18;9.48;;;3.75;;
25263;SDS011;13211;51.796;5.808;2022-09-21T03:04:46;14.38;;;5.10;;
25263;SDS011;13211;51.796;5.808;2022-09-21T03:07:15;12.18;;;5.03;;
25263;SDS011;13211;51.796;5.808;2022-09-21T03:09:43;11.73;;;5.70;;
25263;SDS011;13211;51.796;5.808;2022-09-21T03:12:10;13.02;;;4.75;;
25263;SDS011;13211;51.796;5.808;2022-09-21T03:14:37;9.95;;;4.45;;
25263;SDS011;13211;51.796;5.808;2022-09-21T03:17:04;9.98;;;4.15;;
25263;SDS011;13211;51.796;5.808;2022-09-21T03:19:32;10.63;;;4.35;;
25263;SDS011;13211;51.796;5.808;2022-09-21T03:21:59;11.40;;;4.20;;
25263;SDS011;13211;51.796;5.808;2022-09-21T03:24:26;9.23;;;4.32;;
25263;SDS011;13211;51.796;5.808;2022-09-21T03:27:13;14.85;;;4.47;;
25263;SDS011;13211;51.796;5.808;2022-09-21T03:29:43;8.00;;;3.65;;
25263;SDS011;13211;51.796;5.808;2022-09-21T03:32:10;11.98;;;4.88;;
25263;SDS011;13211;51.796;5.808;2022-09-21T03:34:39;11.80;;;3.83;;
25263;SDS011;13211;51.796;5.808;2022-09-21T03:37:07;14.15;;;3.70;;
25263;SDS011;13211;51.796;5.808;2022-09-21T03:39:36;8.27;;;4.10;;
25263;SDS011;13211;51.796;5.808;2022-09-21T03:42:03;7.43;;;4.20;;
25263;SDS011;13211;51.796;5.808;2022-09-21T03:44:31;9.48;;;4.32;;
25263;SDS011;13211;51.796;5.808;2022-09-21T03:46:58;9.13;;;3.90;;
25263;SDS011;13211;51.796;5.808;2022-09-21T03:49:25;10.50;;;4.30;;
25263;SDS011;13211;51.796;5.808;2022-09-21T03:51:52;11.10;;;3.92;;
25263;SDS011;13211;51.796;5.808;2022-09-21T03:54:20;12.88;;;4.55;;
25263;SDS011;13211;51.796;5.808;2022-09-21T03:56:52;10.27;;;4.70;;
25263;SDS011;13211;51.796;5.808;2022-09-21T03:59:19;11.85;;;5.00;;
25263;SDS011;13211;51.796;5.808;2022-09-21T04:01:47;8.25;;;4.90;;
25263;SDS011;13211;51.796;5.808;2022-09-21T04:04:15;11.20;;;5.00;;
25263;SDS011;13211;51.796;5.808;2022-09-21T04:06:42;9.05;;;4.20;;
25263;SDS011;13211;51.796;5.808;2022-09-21T04:09:11;16.48;;;4.85;;
25263;SDS011;13211;51.796;5.808;2022-09-21T04:11:39;11.43;;;4.07;;
25263;SDS011;13211;51.796;5.808;2022-09-21T04:14:06;12.18;;;4.85;;
25263;SDS011;13211;51.796;5.808;2022-09-21T04:16:33;17.95;;;5.65;;
25263;SDS011;13211;51.796;5.808;2022-09-21T04:19:01;14.00;;;5.13;;
25263;SDS011;13211;51.796;5.808;2022-09-21T04:21:28;13.38;;;4.55;;
25263;SDS011;13211;51.796;5.808;2022-09-21T04:23:55;15.00;;;4.40;;
25263;SDS011;13211;51.796;5.808;2022-09-21T04:26:27;12.55;;;4.47;;
25263;SDS011;13211;51.796;5.808;2022-09-21T04:28:56;9.00;;;3.95;;
25263;SDS011;13211;51.796;5.808;2022-09-21T04:31:23;7.85;;;4.05;;
25263;SDS011;13211;51.796;5.808;2022-09-21T04:33:53;10.70;;;4.68;;
25263;SDS011;13211;51.796;5.808;2022-09-21T04:36:23;10.73;;;4.47;;
25263;SDS011;13211;51.796;5.808;2022-09-21T04:38:52;9.65;;;4.72;;
25263;SDS011;13211;51.796;5.808;2022-09-21T04:41:19;9.88;;;4.28;;
25263;SDS011;13211;51.796;5.808;2022-09-21T04:43:49;14.70;;;5.10;;
25263;SDS011;13211;51.796;5.808;2022-09-21T04:46:16;9.98;;;4.63;;
25263;SDS011;13211;51.796;5.808;2022-09-21T04:48:48;12.77;;;4.50;;
25263;SDS011;13211;51.796;5.808;2022-09-21T04:51:15;9.65;;;4.25;;
25263;SDS011;13211;51.796;5.808;2022-09-21T04:53:43;11.48;;;4.70;;
25263;SDS011;13211;51.796;5.808;2022-09-21T04:56:13;11.43;;;4.57;;
25263;SDS011;13211;51.796;5.808;2022-09-21T04:58:42;7.72;;;4.47;;
25263;SDS011;13211;51.796;5.808;2022-09-21T05:01:09;11.55;;;4.75;;
25263;SDS011;13211;51.796;5.808;2022-09-21T05:03:38;12.50;;;4.50;;
25263;SDS011;13211;51.796;5.808;2022-09-21T05:06:08;14.18;;;4.63;;
25263;SDS011;13211;51.796;5.808;2022-09-21T05:08:39;7.65;;;4.00;;
25263;SDS011;13211;51.796;5.808;2022-09-21T05:11:25;6.80;;;3.83;;
25263;SDS011;13211;51.796;5.808;2022-09-21T05:13:55;8.75;;;3.67;;
25263;SDS011;13211;51.796;5.808;2022-09-21T05:16:23;6.53;;;3.45;;
25263;SDS011;13211;51.796;5.808;2022-09-21T05:18:51;13.52;;;3.80;;
25263;SDS011;13211;51.796;5.808;2022-09-21T05:21:23;7.95;;;3.85;;
25263;SDS011;13211;51.796;5.808;2022-09-21T05:23:52;7.03;;;3.63;;
25263;SDS011;13211;51.796;5.808;2022-09-21T05:26:19;9.90;;;3.45;;
25263;SDS011;13211;51.796;5.808;2022-09-21T05:28:47;9.25;;;4.20;;
25263;SDS011;13211;51.796;5.808;2022-09-21T05:34:15;17.65;;;4.78;;
25263;SDS011;13211;51.796;5.808;2022-09-21T05:36:57;6.63;;;3.65;;
25263;SDS011;13211;51.796;5.808;2022-09-21T05:39:49;10.00;;;4.28;;
25263;SDS011;13211;51.796;5.808;2022-09-21T05:42:18;9.68;;;3.58;;
25263;SDS011;13211;51.796;5.808;2022-09-21T05:44:46;6.80;;;3.85;;
25263;SDS011;13211;51.796;5.808;2022-09-21T05:47:23;13.45;;;3.70;;
25263;SDS011;13211;51.796;5.808;2022-09-21T05:55:59;13.33;;;3.53;;
25263;SDS011;13211;51.796;5.808;2022-09-21T05:58:51;9.93;;;4.57;;
25263;SDS011;13211;51.796;5.808;2022-09-21T06:04:09;6.10;;;3.30;;
25263;SDS011;13211;51.796;5.808;2022-09-21T06:06:38;9.13;;;3.10;;
25263;SDS011;13211;51.796;5.808;2022-09-21T06:09:05;5.88;;;3.00;;
25263;SDS011;13211;51.796;5.808;2022-09-21T06:11:33;6.97;;;3.38;;
25263;SDS011;13211;51.796;5.808;2022-09-21T06:14:00;7.95;;;3.20;;
25263;SDS011;13211;51.796;5.808;2022-09-21T06:16:40;4.68;;;2.80;;
25263;SDS011;13211;51.796;5.808;2022-09-21T06:19:11;8.27;;;2.83;;
25263;SDS011;13211;51.796;5.808;2022-09-21T06:21:39;6.05;;;3.50;;
25263;SDS011;13211;51.796;5.808;2022-09-21T06:24:07;4.60;;;2.78;;
25263;SDS011;13211;51.796;5.808;2022-09-21T06:26:35;5.28;;;3.03;;
25263;SDS011;13211;51.796;5.808;2022-09-21T06:29:02;5.97;;;2.90;;
25263;SDS011;13211;51.796;5.808;2022-09-21T06:31:30;10.43;;;2.88;;
25263;SDS011;13211;51.796;5.808;2022-09-21T06:33:58;10.48;;;2.92;;
25263;SDS011;13211;51.796;5.808;2022-09-21T06:36:25;5.95;;;2.88;;
25263;SDS011;13211;51.796;5.808;2022-09-21T06:38:53;7.18;;;2.38;;
25263;SDS011;13211;51.796;5.808;2022-09-21T06:41:22;6.88;;;2.92;;
25263;SDS011;13211;51.796;5.808;2022-09-21T06:43:52;10.00;;;3.33;;
25263;SDS011;13211;51.796;5.808;2022-09-21T06:46:24;8.65;;;2.90;;
25263;SDS011;13211;51.796;5.808;2022-09-21T06:48:51;9.95;;;3.22;;
25263;SDS011;13211;51.796;5.808;2022-09-21T06:51:19;5.50;;;3.33;;
25263;SDS011;13211;51.796;5.808;2022-09-21T06:53:47;9.85;;;3.50;;
25263;SDS011;13211;51.796;5.808;2022-09-21T06:56:19;9.07;;;3.25;;
25263;SDS011;13211;51.796;5.808;2022-09-21T06:58:49;11.05;;;3.50;;
25263;SDS011;13211;51.796;5.808;2022-09-21T07:01:18;8.98;;;4.00;;
25263;SDS011;13211;51.796;5.808;2022-09-21T07:03:50;8.30;;;4.68;;
25263;SDS011;13211;51.796;5.808;2022-09-21T07:06:19;10.27;;;4.40;;
25263;SDS011;13211;51.796;5.808;2022-09-21T07:08:50;8.50;;;5.00;;
25263;SDS011;13211;51.796;5.808;2022-09-21T07:11:41;9.85;;;6.07;;
25263;SDS011;13211;51.796;5.808;2022-09-21T07:14:08;18.52;;;6.63;;
25263;SDS011;13211;51.796;5.808;2022-09-21T07:16:36;16.42;;;6.65;;
25263;SDS011;13211;51.796;5.808;2022-09-21T07:19:03;17.63;;;7.22;;
25263;SDS011;13211;51.796;5.808;2022-09-21T07:21:38;21.08;;;7.80;;
25263;SDS011;13211;51.796;5.808;2022-09-21T07:24:06;13.23;;;7.13;;
25263;SDS011;13211;51.796;5.808;2022-09-21T07:26:38;18.65;;;7.28;;
25263;SDS011;13211;51.796;5.808;2022-09-21T07:29:06;17.10;;;7.85;;
25263;SDS011;13211;51.796;5.808;2022-09-21T07:31:34;18.30;;;8.27;;
25263;SDS011;13211;51.796;5.808;2022-09-21T07:34:01;19.65;;;8.18;;
25263;SDS011;13211;51.796;5.808;2022-09-21T07:36:29;20.27;;;8.38;;
25263;SDS011;13211;51.796;5.808;2022-09-21T07:38:56;21.50;;;8.20;;
25263;SDS011;13211;51.796;5.808;2022-09-21T07:41:23;18.73;;;7.50;;
25263;SDS011;13211;51.796;5.808;2022-09-21T07:43:54;16.27;;;7.15;;
25263;SDS011;13211;51.796;5.808;2022-09-21T07:46:23;21.27;;;7.20;;
25263;SDS011;13211;51.796;5.808;2022-09-21T07:48:52;18.35;;;7.75;;
25263;SDS011;13211;51.796;5.808;2022-09-21T07:51:22;16.23;;;7.63;;
25263;SDS011;13211;51.796;5.808;2022-09-21T07:53:54;19.70;;;7.13;;
25263;SDS011;13211;51.796;5.808;2022-09-21T07:56:27;19.95;;;6.95;;
25263;SDS011;13211;51.796;5.808;2022-09-21T07:58:55;17.73;;;7.28;;
25263;SDS011;13211;51.796;5.808;2022-09-21T08:01:35;13.57;;;5.80;;
25263;SDS011;13211;51.796;5.808;2022-09-21T08:04:07;14.45;;;5.47;;
25263;SDS011;13211;51.796;5.808;2022-09-21T08:06:36;10.23;;;5.47;;
25263;SDS011;13211;51.796;5.808;2022-09-21T08:09:07;11.77;;;5.40;;
25263;SDS011;13211;51.796;5.808;2022-09-21T08:11:34;12.90;;;5.00;;
25263;SDS011;13211;51.796;5.808;2022-09-21T08:14:03;12.68;;;4.75;;
25263;SDS011;13211;51.796;5.808;2022-09-21T08:16:31;18.92;;;4.88;;
25263;SDS011;13211;51.796;5.808;2022-09-21T08:18:59;15.68;;;3.88;;
25263;SDS011;13211;51.796;5.808;2022-09-21T08:21:27;15.68;;;3.30;;
25263;SDS011;13211;51.796;5.808;2022-09-21T08:23:55;11.45;;;3.10;;
25263;SDS011;13211;51.796;5.808;2022-09-21T08:26:23;8.90;;;2.33;;
25263;SDS011;13211;51.796;5.808;2022-09-21T08:28:51;9.40;;;2.95;;
25263;SDS011;13211;51.796;5.808;2022-09-21T08:31:21;12.98;;;2.92;;
25263;SDS011;13211;51.796;5.808;2022-09-21T08:33:50;11.23;;;3.17;;
25263;SDS011;13211;51.796;5.808;2022-09-21T08:36:19;13.95;;;2.58;;
25263;SDS011;13211;51.796;5.808;2022-09-21T08:38:47;5.45;;;2.20;;
25263;SDS011;13211;51.796;5.808;2022-09-21T08:41:21;16.73;;;3.60;;
25263;SDS011;13211;51.796;5.808;2022-09-21T08:44:11;12.73;;;2.75;;
25263;SDS011;13211;51.796;5.808;2022-09-21T08:46:46;9.32;;;2.20;;
25263;SDS011;13211;51.796;5.808;2022-09-21T08:49:27;11.95;;;1.73;;
25263;SDS011;13211;51.796;5.808;2022-09-21T08:51:58;6.28;;;1.67;;
25263;SDS011;13211;51.796;5.808;2022-09-21T08:54:37;5.90;;;1.67;;
25263;SDS011;13211;51.796;5.808;2022-09-21T08:57:18;9.32;;;1.05;;
25263;SDS011;13211;51.796;5.808;2022-09-21T08:59:49;12.52;;;1.33;;
25263;SDS011;13211;51.796;5.808;2022-09-21T09:18:39;3.72;;;1.02;;
25263;SDS011;13211;51.796;5.808;2022-09-21T09:27:41;11.90;;;1.90;;
25263;SDS011;13211;51.796;5.808;2022-09-21T09:32:44;13.30;;;1.00;;
25263;SDS011;13211;51.796;5.808;2022-09-21T09:38:08;5.20;;;0.80;;
25263;SDS011;13211;51.796;5.808;2022-09-21T09:52:16;5.32;;;0.88;;
25263;SDS011;13211;51.796;5.808;2022-09-21T09:54:43;3.20;;;0.80;;
25263;SDS011;13211;51.796;5.808;2022-09-21T09:57:11;9.02;;;1.17;;
25263;SDS011;13211;51.796;5.808;2022-09-21T09:59:52;4.97;;;0.95;;
25263;SDS011;13211;51.796;5.808;2022-09-21T10:02:24;7.15;;;0.90;;
25263;SDS011;13211;51.796;5.808;2022-09-21T10:05:00;5.32;;;0.70;;
25263;SDS011;13211;51.796;5.808;2022-09-21T10:07:35;6.20;;;1.10;;
25263;SDS011;13211;51.796;5.808;2022-09-21T10:10:22;8.05;;;1.20;;
25263;SDS011;13211;51.796;5.808;2022-09-21T10:15:43;5.07;;;0.73;;
25263;SDS011;13211;51.796;5.808;2022-09-21T10:21:23;7.47;;;1.10;;
25263;SDS011;13211;51.796;5.808;2022-09-21T10:23:57;5.00;;;0.88;;
25263;SDS011;13211;51.796;5.808;2022-09-21T10:26:31;3.95;;;0.70;;
25263;SDS011;13211;51.796;5.808;2022-09-21T10:32:32;6.18;;;0.95;;
25263;SDS011;13211;51.796;5.808;2022-09-21T10:34:42;7.05;;;0.90;;
25263;SDS011;13211;51.796;5.808;2022-09-21T10:37:40;4.75;;;0.90;;
25263;SDS011;13211;51.796;5.808;2022-09-21T10:42:48;7.85;;;0.88;;
25263;SDS011;13211;51.796;5.808;2022-09-21T10:45:20;5.55;;;0.77;;
25263;SDS011;13211;51.796;5.808;2022-09-21T10:48:17;6.95;;;0.98;;
25263;SDS011;13211;51.796;5.808;2022-09-21T10:50:48;4.93;;;0.80;;
25263;SDS011;13211;51.796;5.808;2022-09-21T10:55:59;4.10;;;0.80;;
25263;SDS011;13211;51.796;5.808;2022-09-21T10:59:08;4.18;;;0.93;;
25263;SDS011;13211;51.796;5.808;2022-09-21T11:01:36;5.20;;;0.85;;
25263;SDS011;13211;51.796;5.808;2022-09-21T11:04:22;6.25;;;0.73;;
25263;SDS011;13211;51.796;5.808;2022-09-21T11:17:43;11.18;;;1.25;;
25263;SDS011;13211;51.796;5.808;2022-09-21T11:20:34;8.95;;;1.15;;
25263;SDS011;13211;51.796;5.808;2022-09-21T11:37:19;10.25;;;1.10;;
25263;SDS011;13211;51.796;5.808;2022-09-21T11:51:19;6.20;;;0.82;;
25263;SDS011;13211;51.796;5.808;2022-09-21T11:56:48;6.43;;;0.95;;
25263;SDS011;13211;51.796;5.808;2022-09-21T12:10:33;2.95;;;0.68;;
25263;SDS011;13211;51.796;5.808;2022-09-21T12:21:26;8.48;;;0.90;;
25263;SDS011;13211;51.796;5.808;2022-09-21T12:24:03;2.63;;;0.55;;
25263;SDS011;13211;51.796;5.808;2022-09-21T12:26:41;3.42;;;0.77;;
25263;SDS011;13211;51.796;5.808;2022-09-21T12:34:31;4.18;;;0.88;;
25263;SDS011;13211;51.796;5.808;2022-09-21T12:39:30;8.32;;;1.50;;
25263;SDS011;13211;51.796;5.808;2022-09-21T12:42:00;4.40;;;0.60;;
25263;SDS011;13211;51.796;5.808;2022-09-21T12:47:08;3.47;;;0.80;;
25263;SDS011;13211;51.796;5.808;2022-09-21T12:49:39;4.95;;;0.82;;
25263;SDS011;13211;51.796;5.808;2022-09-21T12:52:08;4.85;;;0.75;;
25263;SDS011;13211;51.796;5.808;2022-09-21T12:54:44;2.20;;;0.60;;
25263;SDS011;13211;51.796;5.808;2022-09-21T13:00:21;3.67;;;0.70;;
25263;SDS011;13211;51.796;5.808;2022-09-21T13:02:54;5.80;;;0.93;;
25263;SDS011;13211;51.796;5.808;2022-09-21T13:12:51;4.28;;;0.80;;
25263;SDS011;13211;51.796;5.808;2022-09-21T13:18:02;5.07;;;0.60;;
25263;SDS011;13211;51.796;5.808;2022-09-21T13:20:35;5.43;;;0.70;;
25263;SDS011;13211;51.796;5.808;2022-09-21T13:23:03;3.53;;;0.75;;
25263;SDS011;13211;51.796;5.808;2022-09-21T13:25:32;4.95;;;0.82;;
25263;SDS011;13211;51.796;5.808;2022-09-21T13:30:46;3.75;;;0.60;;
25263;SDS011;13211;51.796;5.808;2022-09-21T13:38:23;4.40;;;0.70;;
25263;SDS011;13211;51.796;5.808;2022-09-21T13:40:56;6.05;;;0.90;;
25263;SDS011;13211;51.796;5.808;2022-09-21T13:43:41;2.75;;;0.70;;
25263;SDS011;13211;51.796;5.808;2022-09-21T13:48:58;2.60;;;0.60;;
25263;SDS011;13211;51.796;5.808;2022-09-21T13:51:31;3.22;;;0.65;;
25263;SDS011;13211;51.796;5.808;2022-09-21T13:54:00;5.18;;;0.95;;
25263;SDS011;13211;51.796;5.808;2022-09-21T13:56:28;3.10;;;0.68;;
25263;SDS011;13211;51.796;5.808;2022-09-21T14:01:30;3.63;;;0.60;;
25263;SDS011;13211;51.796;5.808;2022-09-21T14:04:22;5.22;;;0.82;;
25263;SDS011;13211;51.796;5.808;2022-09-21T14:06:54;6.20;;;0.93;;
25263;SDS011;13211;51.796;5.808;2022-09-21T14:09:36;3.42;;;0.80;;
25263;SDS011;13211;51.796;5.808;2022-09-21T14:12:08;2.50;;;0.70;;
25263;SDS011;13211;51.796;5.808;2022-09-21T14:14:38;5.35;;;0.85;;
25263;SDS011;13211;51.796;5.808;2022-09-21T14:26:32;8.30;;;0.88;;
25263;SDS011;13211;51.796;5.808;2022-09-21T14:28:34;3.47;;;0.70;;
25263;SDS011;13211;51.796;5.808;2022-09-21T14:31:06;4.57;;;0.80;;
25263;SDS011;13211;51.796;5.808;2022-09-21T14:33:47;4.57;;;0.90;;
25263;SDS011;13211;51.796;5.808;2022-09-21T14:36:21;3.03;;;0.80;;
25263;SDS011;13211;51.796;5.808;2022-09-21T14:38:56;2.88;;;0.52;;
25263;SDS011;13211;51.796;5.808;2022-09-21T14:41:29;4.03;;;0.80;;
25263;SDS011;13211;51.796;5.808;2022-09-21T14:43:58;5.72;;;1.00;;
25263;SDS011;13211;51.796;5.808;2022-09-21T14:47:10;4.30;;;1.00;;
25263;SDS011;13211;51.796;5.808;2022-09-21T15:00:19;4.97;;;1.00;;
25263;SDS011;13211;51.796;5.808;2022-09-21T15:02:59;3.45;;;0.82;;
25263;SDS011;13211;51.796;5.808;2022-09-21T15:05:36;2.65;;;0.73;;
25263;SDS011;13211;51.796;5.808;2022-09-21T15:16:28;7.35;;;1.00;;
25263;SDS011;13211;51.796;5.808;2022-09-21T15:19:13;3.70;;;0.90;;
25263;SDS011;13211;51.796;5.808;2022-09-21T15:21:46;6.00;;;1.00;;
25263;SDS011;13211;51.796;5.808;2022-09-21T15:26:46;2.28;;;0.90;;
25263;SDS011;13211;51.796;5.808;2022-09-21T15:29:19;6.30;;;1.23;;
25263;SDS011;13211;51.796;5.808;2022-09-21T15:31:52;2.05;;;0.93;;
25263;SDS011;13211;51.796;5.808;2022-09-21T15:34:22;4.03;;;0.98;;
25263;SDS011;13211;51.796;5.808;2022-09-21T15:37:04;5.68;;;0.90;;
25263;SDS011;13211;51.796;5.808;2022-09-21T15:39:32;2.80;;;0.60;;
25263;SDS011;13211;51.796;5.808;2022-09-21T15:44:31;6.75;;;0.80;;
25263;SDS011;13211;51.796;5.808;2022-09-21T15:46:59;5.13;;;0.80;;
25263;SDS011;13211;51.796;5.808;2022-09-21T15:49:28;4.22;;;0.80;;
25263;SDS011;13211;51.796;5.808;2022-09-21T15:52:18;2.75;;;0.57;;
25263;SDS011;13211;51.796;5.808;2022-09-21T15:55:00;3.97;;;0.90;;
25263;SDS011;13211;51.796;5.808;2022-09-21T16:00:27;5.32;;;1.05;;
25263;SDS011;13211;51.796;5.808;2022-09-21T16:02:58;3.40;;;0.80;;
25263;SDS011;13211;51.796;5.808;2022-09-21T16:05:31;5.15;;;0.80;;
25263;SDS011;13211;51.796;5.808;2022-09-21T16:08:03;4.60;;;0.82;;
25263;SDS011;13211;51.796;5.808;2022-09-21T16:12:59;3.65;;;0.68;;
25263;SDS011;13211;51.796;5.808;2022-09-21T16:16:05;5.95;;;1.05;;
25263;SDS011;13211;51.796;5.808;2022-09-21T16:18:54;3.78;;;0.80;;
25263;SDS011;13211;51.796;5.808;2022-09-21T16:21:31;4.03;;;0.93;;
25263;SDS011;13211;51.796;5.808;2022-09-21T16:24:18;4.53;;;0.90;;
25263;SDS011;13211;51.796;5.808;2022-09-21T16:26:56;3.30;;;1.00;;
25263;SDS011;13211;51.796;5.808;2022-09-21T16:29:25;5.22;;;0.90;;
25263;SDS011;13211;51.796;5.808;2022-09-21T16:32:18;3.28;;;0.95;;
25263;SDS011;13211;51.796;5.808;2022-09-21T16:34:49;2.17;;;0.70;;
25263;SDS011;13211;51.796;5.808;2022-09-21T16:37:22;3.25;;;0.80;;
25263;SDS011;13211;51.796;5.808;2022-09-21T16:39:53;5.68;;;0.98;;
25263;SDS011;13211;51.796;5.808;2022-09-21T16:42:21;4.25;;;0.90;;
25263;SDS011;13211;51.796;5.808;2022-09-21T16:44:53;3.22;;;0.80;;
25263;SDS011;13211;51.796;5.808;2022-09-21T16:47:21;3.45;;;0.80;;
25263;SDS011;13211;51.796;5.808;2022-09-21T16:49:54;3.28;;;0.93;;
25263;SDS011;13211;51.796;5.808;2022-09-21T16:52:27;3.53;;;0.70;;
25263;SDS011;13211;51.796;5.808;2022-09-21T16:54:55;3.42;;;0.80;;
25263;SDS011;13211;51.796;5.808;2022-09-21T16:57:25;3.58;;;0.70;;
25263;SDS011;13211;51.796;5.808;2022-09-21T16:59:53;5.45;;;0.80;;
25263;SDS011;13211;51.796;5.808;2022-09-21T17:02:20;3.90;;;1.00;;
25263;SDS011;13211;51.796;5.808;2022-09-21T17:04:49;4.45;;;0.90;;
25263;SDS011;13211;51.796;5.808;2022-09-21T17:07:17;1.95;;;0.80;;
25263;SDS011;13211;51.796;5.808;2022-09-21T17:09:49;2.85;;;0.95;;
25263;SDS011;13211;51.796;5.808;2022-09-21T17:12:18;5.20;;;0.90;;
25263;SDS011;13211;51.796;5.808;2022-09-21T17:14:45;3.72;;;1.08;;
25263;SDS011;13211;51.796;5.808;2022-09-21T17:17:24;3.95;;;0.95;;
25263;SDS011;13211;51.796;5.808;2022-09-21T17:19:53;4.43;;;1.10;;
25263;SDS011;13211;51.796;5.808;2022-09-21T17:22:20;3.25;;;0.80;;
25263;SDS011;13211;51.796;5.808;2022-09-21T17:24:51;3.17;;;0.90;;
25263;SDS011;13211;51.796;5.808;2022-09-21T17:27:21;4.00;;;1.00;;
25263;SDS011;13211;51.796;5.808;2022-09-21T17:29:49;3.92;;;0.80;;
25263;SDS011;13211;51.796;5.808;2022-09-21T17:32:20;3.13;;;1.00;;
25263;SDS011;13211;51.796;5.808;2022-09-21T17:37:35;3.10;;;1.05;;
25263;SDS011;13211;51.796;5.808;2022-09-21T17:40:04;4.43;;;1.10;;
25263;SDS011;13211;51.796;5.808;2022-09-21T17:42:40;15.25;;;1.40;;
25263;SDS011;13211;51.796;5.808;2022-09-21T17:47:52;7.00;;;0.95;;
25263;SDS011;13211;51.796;5.808;2022-09-21T17:50:22;3.22;;;1.08;;
25263;SDS011;13211;51.796;5.808;2022-09-21T17:52:54;5.22;;;1.17;;
25263;SDS011;13211;51.796;5.808;2022-09-21T17:55:43;5.85;;;1.15;;
25263;SDS011;13211;51.796;5.808;2022-09-21T18:00:42;3.65;;;1.02;;
25263;SDS011;13211;51.796;5.808;2022-09-21T18:03:33;7.70;;;1.08;;
25263;SDS011;13211;51.796;5.808;2022-09-21T18:06:07;5.43;;;1.35;;
25263;SDS011;13211;51.796;5.808;2022-09-21T18:08:35;7.88;;;1.20;;
25263;SDS011;13211;51.796;5.808;2022-09-21T18:19:23;11.10;;;1.30;;
25263;SDS011;13211;51.796;5.808;2022-09-21T18:22:00;9.75;;;1.35;;
25263;SDS011;13211;51.796;5.808;2022-09-21T18:24:37;4.43;;;1.50;;
25263;SDS011;13211;51.796;5.808;2022-09-21T18:27:06;4.63;;;1.02;;
25263;SDS011;13211;51.796;5.808;2022-09-21T18:29:37;6.72;;;1.08;;
25263;SDS011;13211;51.796;5.808;2022-09-21T18:37:56;12.18;;;1.48;;
25263;SDS011;13211;51.796;5.808;2022-09-21T18:46:18;4.57;;;1.42;;
25263;SDS011;13211;51.796;5.808;2022-09-21T18:48:50;3.15;;;1.20;;
25263;SDS011;13211;51.796;5.808;2022-09-21T18:51:41;4.20;;;1.20;;
25263;SDS011;13211;51.796;5.808;2022-09-21T18:54:20;7.45;;;1.27;;
25263;SDS011;13211;51.796;5.808;2022-09-21T18:56:53;10.60;;;2.07;;
25263;SDS011;13211;51.796;5.808;2022-09-21T18:59:23;5.55;;;1.48;;
25263;SDS011;13211;51.796;5.808;2022-09-21T19:01:57;5.25;;;1.20;;
25263;SDS011;13211;51.796;5.808;2022-09-21T19:04:25;6.53;;;1.45;;
25263;SDS011;13211;51.796;5.808;2022-09-21T19:07:03;6.50;;;1.95;;
25263;SDS011;13211;51.796;5.808;2022-09-21T19:09:52;7.80;;;1.30;;
25263;SDS011;13211;51.796;5.808;2022-09-21T19:15:16;9.45;;;1.63;;
25263;SDS011;13211;51.796;5.808;2022-09-21T19:26:40;7.32;;;1.60;;
25263;SDS011;13211;51.796;5.808;2022-09-21T19:29:31;9.02;;;1.98;;
25263;SDS011;13211;51.796;5.808;2022-09-21T19:32:14;4.68;;;1.80;;
25263;SDS011;13211;51.796;5.808;2022-09-21T19:34:50;4.65;;;2.08;;
25263;SDS011;13211;51.796;5.808;2022-09-21T19:37:19;6.25;;;1.80;;
25263;SDS011;13211;51.796;5.808;2022-09-21T19:39:48;6.32;;;1.60;;
25263;SDS011;13211;51.796;5.808;2022-09-21T19:42:21;6.25;;;1.80;;